createdAt,value
2023-05-15T00:02:26.054Z,0.88
2023-05-15T00:04:53.069Z,0.80
2023-05-15T00:07:21.079Z,1.20
2023-05-15T00:09:47.842Z,1.00
2023-05-15T00:12:14.832Z,0.70
2023-05-15T00:14:41.661Z,0.90
2023-05-15T00:17:08.726Z,1.03
2023-05-15T00:19:35.614Z,0.93
2023-05-15T00:22:02.437Z,0.88
2023-05-15T00:24:29.324Z,1.00
2023-05-15T00:26:56.211Z,0.90
2023-05-15T00:29:23.079Z,0.90
2023-05-15T00:31:50.123Z,1.00
2023-05-15T00:34:17.252Z,0.70
2023-05-15T00:36:44.675Z,0.68
2023-05-15T00:42:07.042Z,0.50
2023-05-15T00:44:38.224Z,0.50
2023-05-15T00:47:07.188Z,0.38
2023-05-15T00:49:38.487Z,0.40
2023-05-15T00:52:06.076Z,0.50
2023-05-15T00:54:35.519Z,0.40
2023-05-15T00:57:06.489Z,0.38
2023-05-15T00:59:33.839Z,0.50
2023-05-15T01:02:01.025Z,0.47
2023-05-15T01:04:28.334Z,0.50
2023-05-15T01:06:55.295Z,0.50
2023-05-15T01:09:29.702Z,0.32
2023-05-15T01:12:00.660Z,0.30
2023-05-15T01:14:27.371Z,0.35
2023-05-15T01:19:55.574Z,0.50
2023-05-15T01:22:46.201Z,0.22
2023-05-15T01:25:38.474Z,0.30
2023-05-15T01:28:12.181Z,0.30
2023-05-15T01:30:45.030Z,0.40
2023-05-15T01:33:21.662Z,0.50
2023-05-15T01:36:33.628Z,0.50
2023-05-15T01:39:03.741Z,0.50
2023-05-15T01:41:37.349Z,0.60
2023-05-15T01:44:07.811Z,0.40
2023-05-15T01:46:43.742Z,0.70
2023-05-15T01:49:16.118Z,0.70
2023-05-15T01:51:49.091Z,0.70
2023-05-15T01:54:17.243Z,0.60
2023-05-15T01:56:45.540Z,0.50
2023-05-15T01:59:18.020Z,0.53
2023-05-15T02:01:46.651Z,0.45
2023-05-15T02:04:14.697Z,0.52
2023-05-15T02:06:42.210Z,0.43
2023-05-15T02:09:10.742Z,0.70
2023-05-15T02:11:37.920Z,0.57
2023-05-15T02:14:05.255Z,0.70
2023-05-15T02:16:32.539Z,0.75
2023-05-15T02:18:59.620Z,0.75
2023-05-15T02:21:26.414Z,0.57
2023-05-15T02:23:54.591Z,0.50
2023-05-15T02:26:49.513Z,0.60
2023-05-15T02:29:31.911Z,0.77
2023-05-15T02:32:29.511Z,0.38
2023-05-15T02:35:34.543Z,0.40
2023-05-15T02:38:16.930Z,0.37
2023-05-15T02:40:49.521Z,0.47
2023-05-15T02:43:19.625Z,0.40
2023-05-15T02:45:51.625Z,0.50
2023-05-15T02:48:19.155Z,0.50
2023-05-15T02:50:46.179Z,0.40
2023-05-15T02:53:13.167Z,0.60
2023-05-15T02:55:40.105Z,0.77
2023-05-15T02:58:07.193Z,0.35
2023-05-15T03:00:33.970Z,0.40
2023-05-15T03:03:00.996Z,0.50
2023-05-15T03:05:28.680Z,0.50
2023-05-15T03:07:57.799Z,0.60
2023-05-15T03:10:24.650Z,0.50
2023-05-15T03:13:17.602Z,0.47
2023-05-15T03:16:09.450Z,0.70
2023-05-15T03:18:38.572Z,0.70
2023-05-15T03:21:08.974Z,0.50
2023-05-15T03:23:37.658Z,0.52
2023-05-15T03:26:29.504Z,0.63
2023-05-15T03:28:58.416Z,0.50
2023-05-15T03:31:25.316Z,0.38
2023-05-15T03:33:54.053Z,0.40
2023-05-15T03:36:21.723Z,0.32
2023-05-15T03:38:49.729Z,0.30
2023-05-15T03:41:16.485Z,0.27
2023-05-15T03:43:44.024Z,0.22
2023-05-15T03:46:12.653Z,0.30
2023-05-15T03:48:41.220Z,0.10
2023-05-15T03:51:10.164Z,0.10
2023-05-15T03:56:29.595Z,0.10
2023-05-15T03:58:56.529Z,0.10
2023-05-15T04:01:23.285Z,0.00
2023-05-15T04:03:50.256Z,0.08
2023-05-15T04:06:17.028Z,0.00
2023-05-15T04:08:44.100Z,0.00
2023-05-15T04:11:12.571Z,0.00
2023-05-15T04:14:04.551Z,0.00
2023-05-15T04:16:57.661Z,0.00
2023-05-15T04:19:25.088Z,0.00
2023-05-15T04:21:52.179Z,0.00
2023-05-15T04:24:19.613Z,0.00
2023-05-15T04:26:46.410Z,0.00
2023-05-15T04:29:13.286Z,0.00
2023-05-15T04:31:40.652Z,0.00
2023-05-15T04:34:07.556Z,0.00
2023-05-15T04:36:34.277Z,0.00
2023-05-15T04:39:02.180Z,0.00
2023-05-15T04:41:28.950Z,0.00
2023-05-15T04:43:56.064Z,0.00
2023-05-15T04:46:23.609Z,0.00
2023-05-15T04:48:50.959Z,0.00
2023-05-15T04:51:32.481Z,0.00
2023-05-15T04:56:57.042Z,0.00
2023-05-15T04:59:23.956Z,0.00
2023-05-15T05:01:53.932Z,0.00
2023-05-15T05:04:21.002Z,0.00
2023-05-15T05:06:49.204Z,0.00
2023-05-15T05:09:16.003Z,0.00
2023-05-15T05:11:42.931Z,0.00
2023-05-15T05:14:15.763Z,0.00
2023-05-15T05:16:45.397Z,0.00
2023-05-15T05:19:17.651Z,0.00
2023-05-15T05:21:48.159Z,0.00
2023-05-15T05:24:16.590Z,0.00
2023-05-15T05:26:44.579Z,0.00
2023-05-15T05:29:13.592Z,0.00
2023-05-15T05:31:40.400Z,0.00
2023-05-15T05:34:07.461Z,0.00
2023-05-15T05:36:34.221Z,0.00
2023-05-15T05:39:01.974Z,0.00
2023-05-15T05:41:30.582Z,0.00
2023-05-15T05:43:57.324Z,0.00
2023-05-15T05:46:25.563Z,0.00
2023-05-15T05:48:52.377Z,0.00
2023-05-15T05:51:20.163Z,0.00
2023-05-15T05:53:47.012Z,0.00
2023-05-15T05:56:14.956Z,0.00
2023-05-15T05:58:41.769Z,0.00
2023-05-15T06:01:08.697Z,0.00
2023-05-15T06:03:35.814Z,0.00
2023-05-15T06:06:02.768Z,0.00
2023-05-15T06:08:58.600Z,0.00
2023-05-15T06:11:25.984Z,0.00
2023-05-15T06:13:52.895Z,0.00
2023-05-15T06:16:19.833Z,0.00
2023-05-15T06:18:46.765Z,0.00
2023-05-15T06:21:14.528Z,0.00
2023-05-15T06:23:41.282Z,0.00
2023-05-15T06:26:08.213Z,0.00
2023-05-15T06:28:34.996Z,0.00
2023-05-15T06:31:06.830Z,0.00
2023-05-15T06:33:33.796Z,0.00
2023-05-15T06:36:00.589Z,0.00
2023-05-15T06:38:27.501Z,0.00
2023-05-15T06:40:54.265Z,0.00
2023-05-15T06:43:22.569Z,0.00
2023-05-15T06:45:49.893Z,0.00
2023-05-15T06:48:16.785Z,0.00
2023-05-15T06:50:43.912Z,0.00
2023-05-15T06:53:14.183Z,0.00
2023-05-15T06:55:41.419Z,0.00
2023-05-15T06:58:09.660Z,0.00
2023-05-15T07:00:36.484Z,0.00
2023-05-15T07:03:04.606Z,0.00
2023-05-15T07:05:31.359Z,0.00
2023-05-15T07:08:00.136Z,0.00
2023-05-15T07:10:27.875Z,0.00
2023-05-15T07:12:54.964Z,0.00
2023-05-15T07:15:23.241Z,0.00
2023-05-15T07:17:50.190Z,0.00
2023-05-15T07:20:17.987Z,0.00
2023-05-15T07:22:55.716Z,0.00
2023-05-15T07:25:26.088Z,0.00
2023-05-15T07:27:53.171Z,0.00
2023-05-15T07:30:20.012Z,0.00
2023-05-15T07:32:47.670Z,0.00
2023-05-15T07:35:18.661Z,0.00
2023-05-15T07:37:45.680Z,0.00
2023-05-15T07:40:14.328Z,0.00
2023-05-15T07:42:43.931Z,0.00
2023-05-15T07:45:11.663Z,0.00
2023-05-15T07:47:38.652Z,0.00
2023-05-15T07:50:05.906Z,0.00
2023-05-15T07:52:37.531Z,0.00
2023-05-15T07:55:04.610Z,0.00
2023-05-15T07:57:37.689Z,0.00
2023-05-15T08:00:05.103Z,0.00
2023-05-15T08:05:31.596Z,0.00
2023-05-15T08:07:58.360Z,0.00
2023-05-15T08:10:25.633Z,0.10
2023-05-15T08:12:52.730Z,0.65
2023-05-15T08:15:19.463Z,0.47
2023-05-15T08:17:48.120Z,0.10
2023-05-15T08:20:15.207Z,0.00
2023-05-15T08:22:42.116Z,0.00
2023-05-15T08:25:10.391Z,0.00
2023-05-15T08:27:37.170Z,0.00
2023-05-15T08:30:05.626Z,0.00
2023-05-15T08:32:32.484Z,0.00
2023-05-15T08:35:02.986Z,0.00
2023-05-15T08:37:30.121Z,0.00
2023-05-15T08:39:56.822Z,0.00
2023-05-15T08:42:34.010Z,0.00
2023-05-15T08:45:01.485Z,0.00
2023-05-15T08:47:29.471Z,0.00
2023-05-15T08:50:16.091Z,0.00
2023-05-15T08:52:48.733Z,0.20
2023-05-15T08:55:16.780Z,0.00
2023-05-15T08:57:43.988Z,0.00
2023-05-15T09:00:12.055Z,0.35
2023-05-15T09:02:39.603Z,0.00
2023-05-15T09:05:07.981Z,0.00
2023-05-15T09:07:36.581Z,0.10
2023-05-15T09:10:04.074Z,0.00
2023-05-15T09:12:34.157Z,0.00
2023-05-15T09:15:15.796Z,0.00
2023-05-15T09:17:43.635Z,0.00
2023-05-15T09:20:31.343Z,0.00
2023-05-15T09:23:28.045Z,0.40
2023-05-15T09:25:54.944Z,0.00
2023-05-15T09:28:34.639Z,0.10
2023-05-15T09:31:27.875Z,0.00
2023-05-15T09:34:01.680Z,0.00
2023-05-15T09:36:28.733Z,0.10
2023-05-15T09:39:01.628Z,0.00
2023-05-15T09:41:30.095Z,0.00
2023-05-15T09:43:57.685Z,0.00
2023-05-15T09:46:24.642Z,0.00
2023-05-15T09:48:55.369Z,0.00
2023-05-15T09:51:23.797Z,0.00
2023-05-15T09:53:52.478Z,0.00
2023-05-15T09:56:20.113Z,0.00
2023-05-15T09:58:54.639Z,0.00
2023-05-15T10:01:23.212Z,0.00
2023-05-15T10:04:01.690Z,0.10
2023-05-15T10:06:42.658Z,0.00
2023-05-15T10:09:37.770Z,0.00
2023-05-15T10:12:08.577Z,0.00
2023-05-15T10:14:35.495Z,0.00
2023-05-15T10:17:06.878Z,0.00
2023-05-15T10:19:44.050Z,0.00
2023-05-15T10:22:29.651Z,0.00
2023-05-15T10:25:13.520Z,0.00
2023-05-15T10:27:43.644Z,0.00
2023-05-15T10:30:10.824Z,0.00
2023-05-15T10:32:39.570Z,0.00
2023-05-15T10:35:06.867Z,0.00
2023-05-15T10:37:42.739Z,0.00
2023-05-15T10:40:10.885Z,0.00
2023-05-15T10:43:04.943Z,0.10
2023-05-15T10:45:32.398Z,0.00
2023-05-15T10:48:00.785Z,0.00
2023-05-15T10:50:28.347Z,0.00
2023-05-15T10:52:55.855Z,0.00
2023-05-15T10:55:25.689Z,0.00
2023-05-15T10:57:52.750Z,0.00
2023-05-15T11:00:22.640Z,0.00
2023-05-15T11:02:50.774Z,0.00
2023-05-15T11:05:17.705Z,0.00
2023-05-15T11:08:31.182Z,0.00
2023-05-15T11:10:58.166Z,0.00
2023-05-15T11:13:25.041Z,0.00
2023-05-15T11:15:52.160Z,0.00
2023-05-15T11:18:20.603Z,0.13
2023-05-15T11:20:50.340Z,0.00
2023-05-15T11:23:22.650Z,0.00
2023-05-15T11:25:57.977Z,0.00
2023-05-15T11:28:29.988Z,0.00
2023-05-15T11:31:06.582Z,0.00
2023-05-15T11:33:35.610Z,0.00
2023-05-15T11:36:05.556Z,0.00
2023-05-15T11:38:38.468Z,0.00
2023-05-15T11:41:20.736Z,0.00
2023-05-15T11:44:13.638Z,0.00
2023-05-15T11:46:42.083Z,0.00
2023-05-15T11:52:03.637Z,0.00
2023-05-15T11:54:30.709Z,0.00
2023-05-15T11:56:58.606Z,0.00
2023-05-15T11:59:27.387Z,0.00
2023-05-15T12:01:56.780Z,0.00
2023-05-15T12:04:23.826Z,0.00
2023-05-15T12:06:54.646Z,0.00
2023-05-15T12:09:21.488Z,0.00
2023-05-15T12:11:53.127Z,0.00
2023-05-15T12:14:31.253Z,0.00
2023-05-15T12:17:03.100Z,0.00
2023-05-15T12:19:37.959Z,0.00
2023-05-15T12:22:06.983Z,0.00
2023-05-15T12:24:33.784Z,0.00
2023-05-15T12:27:00.718Z,0.00
2023-05-15T12:29:28.597Z,0.00
2023-05-15T12:31:55.559Z,0.00
2023-05-15T12:34:22.508Z,0.00
2023-05-15T12:36:49.457Z,0.00
2023-05-15T12:39:17.215Z,0.00
2023-05-15T12:41:46.730Z,0.00
2023-05-15T12:44:18.581Z,0.00
2023-05-15T12:46:46.298Z,0.00
2023-05-15T12:49:13.008Z,0.00
2023-05-15T12:51:45.857Z,0.00
2023-05-15T12:54:24.216Z,0.00
2023-05-15T12:56:51.053Z,0.00
2023-05-15T12:59:18.838Z,0.00
2023-05-15T13:01:45.700Z,0.00
2023-05-15T13:04:12.634Z,0.00
2023-05-15T13:06:46.889Z,0.00
2023-05-15T13:09:21.185Z,0.00
2023-05-15T13:11:48.615Z,0.00
2023-05-15T13:14:17.973Z,0.00
2023-05-15T13:16:47.677Z,0.00
2023-05-15T13:19:14.680Z,0.00
2023-05-15T13:21:42.063Z,0.00
2023-05-15T13:24:09.305Z,0.00
2023-05-15T13:26:36.061Z,0.00
2023-05-15T13:29:03.080Z,0.00
2023-05-15T13:31:30.001Z,0.00
2023-05-15T13:33:56.751Z,0.00
2023-05-15T13:36:23.686Z,0.10
2023-05-15T13:38:50.502Z,0.10
2023-05-15T13:41:17.425Z,0.00
2023-05-15T13:43:44.143Z,0.00
2023-05-15T13:46:11.334Z,0.00
2023-05-15T13:48:38.184Z,0.00
2023-05-15T13:51:05.047Z,0.00
2023-05-15T13:53:31.982Z,0.00
2023-05-15T13:55:58.886Z,0.00
2023-05-15T13:58:25.749Z,0.00
2023-05-15T14:00:52.824Z,0.00
2023-05-15T14:03:20.122Z,0.00
2023-05-15T14:05:47.078Z,0.00
2023-05-15T14:08:13.958Z,0.00
2023-05-15T14:10:40.784Z,0.00
2023-05-15T14:13:07.592Z,0.00
2023-05-15T14:15:34.720Z,0.00
2023-05-15T14:18:01.635Z,0.00
2023-05-15T14:20:28.623Z,0.00
2023-05-15T14:22:55.448Z,0.00
2023-05-15T14:25:22.388Z,0.00
2023-05-15T14:27:49.363Z,0.10
2023-05-15T14:30:16.245Z,0.00
2023-05-15T14:32:43.169Z,0.00
2023-05-15T14:35:09.933Z,0.00
2023-05-15T14:37:37.098Z,0.00
2023-05-15T14:40:04.220Z,0.00
2023-05-15T14:42:30.966Z,0.00
2023-05-15T14:44:58.095Z,0.00
2023-05-15T14:47:24.885Z,0.00
2023-05-15T14:49:53.094Z,0.00
2023-05-15T14:52:21.706Z,0.00
2023-05-15T14:55:00.603Z,0.00
2023-05-15T14:57:36.794Z,0.00
2023-05-15T15:00:04.605Z,0.00
2023-05-15T15:02:31.694Z,0.00
2023-05-15T15:04:58.732Z,0.00
2023-05-15T15:07:30.012Z,0.00
2023-05-15T15:09:56.799Z,0.00
2023-05-15T15:12:23.922Z,0.10
2023-05-15T15:14:51.125Z,0.00
2023-05-15T15:17:17.885Z,0.00
2023-05-15T15:19:46.353Z,0.00
2023-05-15T15:22:13.262Z,0.00
2023-05-15T15:24:39.996Z,0.00
2023-05-15T15:27:08.674Z,0.00
2023-05-15T15:29:35.448Z,0.00
2023-05-15T17:53:02.848Z,0.32
2023-05-15T17:55:29.875Z,1.65
2023-05-15T17:58:24.374Z,0.00
2023-05-15T18:00:52.084Z,0.10
2023-05-15T18:03:19.053Z,0.10
2023-05-15T18:05:46.641Z,0.10
2023-05-15T18:08:14.158Z,0.10
2023-05-15T18:10:42.393Z,0.10
2023-05-15T18:13:09.280Z,0.10
2023-05-15T18:15:38.399Z,0.10
2023-05-15T18:18:06.410Z,0.13
2023-05-15T18:20:34.406Z,0.10
2023-05-15T18:23:01.141Z,0.20
2023-05-15T18:25:29.052Z,0.13
2023-05-15T18:27:56.768Z,0.10
2023-05-15T18:30:26.873Z,0.10
2023-05-15T18:32:54.580Z,0.10
2023-05-15T18:35:23.084Z,0.15
2023-05-15T18:37:49.948Z,0.00
2023-05-15T18:40:16.839Z,0.15
2023-05-15T18:42:44.094Z,0.10
2023-05-15T18:45:11.423Z,0.10
2023-05-15T18:47:40.079Z,0.17
2023-05-15T18:50:09.380Z,0.20
2023-05-15T18:52:36.949Z,0.30
2023-05-15T18:57:57.363Z,0.20
2023-05-15T19:00:37.344Z,0.30
2023-05-15T19:03:07.538Z,0.20
2023-05-15T19:05:34.541Z,0.25
2023-05-15T19:08:02.896Z,0.13
2023-05-15T19:10:29.912Z,0.28
2023-05-15T19:12:57.830Z,0.20
2023-05-15T19:15:25.988Z,0.52
2023-05-15T19:17:53.432Z,0.30
2023-05-15T19:20:20.774Z,0.40
2023-05-15T19:22:50.958Z,0.20
2023-05-15T19:25:17.820Z,0.20
2023-05-15T19:27:44.604Z,0.32
2023-05-15T19:30:11.682Z,0.30
2023-05-15T19:32:40.497Z,0.30
2023-05-15T19:35:07.580Z,0.20
2023-05-15T19:37:36.506Z,0.38
2023-05-15T19:40:03.343Z,0.20
2023-05-15T19:42:30.313Z,0.30
2023-05-15T19:44:57.399Z,0.10
2023-05-15T19:47:24.133Z,0.20
2023-05-15T19:49:52.028Z,0.15
2023-05-15T19:52:20.446Z,0.20
2023-05-15T19:54:49.091Z,0.30
2023-05-15T19:57:16.435Z,0.17
2023-05-15T19:59:48.397Z,0.30
2023-05-15T20:02:18.097Z,0.28
2023-05-15T20:04:45.379Z,0.35
2023-05-15T20:07:12.770Z,0.30
2023-05-15T20:09:41.414Z,0.40
2023-05-15T20:12:08.273Z,0.30
2023-05-15T20:14:35.256Z,0.32
2023-05-15T20:17:02.049Z,0.35
2023-05-15T20:19:29.023Z,0.32
2023-05-15T20:22:00.376Z,0.30
2023-05-15T20:24:28.889Z,0.40
2023-05-15T20:26:56.381Z,0.38
2023-05-15T20:29:24.906Z,0.30
2023-05-15T20:31:52.210Z,0.43
2023-05-15T20:34:19.117Z,0.30
2023-05-15T20:36:47.452Z,0.38
2023-05-15T20:39:14.206Z,0.50
2023-05-15T20:42:07.384Z,0.45
2023-05-15T20:44:34.772Z,0.60
2023-05-15T20:47:01.892Z,0.50
2023-05-15T20:49:29.994Z,0.50
2023-05-15T20:52:00.588Z,0.30
2023-05-15T20:54:27.347Z,0.40
2023-05-15T20:56:54.239Z,0.50
2023-05-15T20:59:25.601Z,0.30
2023-05-15T21:01:52.654Z,0.30
2023-05-15T21:04:19.424Z,0.50
2023-05-15T21:06:47.465Z,0.52
2023-05-15T21:09:14.449Z,0.40
2023-05-15T21:11:41.229Z,0.40
2023-05-15T21:14:09.945Z,0.43
2023-05-15T21:16:36.894Z,0.60
2023-05-15T21:19:03.977Z,0.60
2023-05-15T21:21:31.927Z,0.65
2023-05-15T21:24:01.592Z,0.67
2023-05-15T21:26:32.483Z,0.30
2023-05-15T21:28:59.327Z,0.52
2023-05-15T21:31:51.499Z,0.55
2023-05-15T21:34:19.937Z,0.47
2023-05-15T21:36:46.684Z,0.40
2023-05-15T21:39:16.946Z,0.50
2023-05-15T21:41:43.686Z,0.38
2023-05-15T21:44:10.913Z,0.43
2023-05-15T21:49:28.606Z,0.40
2023-05-15T21:51:55.624Z,0.60
2023-05-15T21:54:22.384Z,0.80
2023-05-15T21:56:51.438Z,0.60
2023-05-15T21:59:18.387Z,0.52
2023-05-15T22:01:47.568Z,0.60
2023-05-15T22:04:18.081Z,0.70
2023-05-15T22:06:44.812Z,0.50
2023-05-15T22:09:15.105Z,0.70
2023-05-15T22:11:41.905Z,0.93
2023-05-15T22:14:09.476Z,0.70
2023-05-15T22:16:36.314Z,0.70
2023-05-15T22:19:03.303Z,0.80
2023-05-15T22:21:32.269Z,0.50
2023-05-15T22:24:01.271Z,0.85
2023-05-15T22:26:28.146Z,0.53
2023-05-15T22:28:59.527Z,0.70
2023-05-15T22:31:51.314Z,0.60
2023-05-15T22:34:19.504Z,0.57
2023-05-15T22:36:47.858Z,0.50
2023-05-15T22:39:14.988Z,0.50
2023-05-15T22:41:41.766Z,0.50
2023-05-15T22:44:09.811Z,0.50
2023-05-15T22:46:37.468Z,0.38
2023-05-15T22:49:04.907Z,0.47
2023-05-15T22:51:32.548Z,0.37
2023-05-15T22:54:02.987Z,0.40
2023-05-15T22:56:29.724Z,0.20
2023-05-15T22:58:57.060Z,0.40
2023-05-15T23:01:23.863Z,0.20
2023-05-15T23:03:52.019Z,0.30
2023-05-15T23:06:19.045Z,0.30
2023-05-15T23:08:45.875Z,0.32
2023-05-15T23:14:09.500Z,0.20
2023-05-15T23:16:36.306Z,0.30
2023-05-15T23:19:03.398Z,0.15
2023-05-15T23:21:30.993Z,0.20
2023-05-15T23:23:59.583Z,0.13
2023-05-15T23:26:26.492Z,0.20
2023-05-15T23:28:53.430Z,0.20
2023-05-15T23:31:20.593Z,0.20
2023-05-15T23:33:52.137Z,0.20
2023-05-15T23:36:20.427Z,0.20
2023-05-15T23:38:48.971Z,0.20
2023-05-15T23:41:21.498Z,0.20
2023-05-15T23:43:48.376Z,0.17
2023-05-15T23:46:20.520Z,0.20
2023-05-15T23:48:47.881Z,0.20
2023-05-15T23:51:15.986Z,0.10
2023-05-15T23:53:42.788Z,0.10
2023-05-15T23:56:11.467Z,0.20
2023-05-15T23:58:38.179Z,0.10
